Time;durP1;ratioP1;P1;durP2;ratioP2;P2;SDS_P1;SDS_P2;PMS_P1;PMS_P2;Temp;Humidity;BMP_temperature;BMP_pressure;BME280_temperature;BME280_humidity;BME280_pressure;Samples;Min_cycle;Max_cycle;Signal;HPM_P1;HPM_P2
2022/09/05 00:02:54;;;;;;;7.53;4.50;;;;;;;;;;6190134;23;20174;-88
2022/09/05 00:06:05;;;;;;;8.50;4.43;;;;;;;;;;6189286;23;20647;-87
2022/09/05 00:09:13;;;;;;;8.73;3.90;;;;;;;;;;6172478;23;20497;-87
2022/09/05 00:12:19;;;;;;;6.10;4.32;;;;;;;;;;6190113;23;20191;-87
2022/09/05 00:15:28;;;;;;;5.90;4.32;;;;;;;;;;6172499;23;20266;-87
2022/09/05 00:18:42;;;;;;;6.82;4.55;;;;;;;;;;6173203;23;20171;-86
2022/09/05 00:21:52;;;;;;;5.43;3.83;;;;;;;;;;6172906;23;20292;-89
2022/09/05 00:25:04;;;;;;;8.90;3.80;;;;;;;;;;6171485;23;20172;-84
2022/09/05 00:28:16;;;;;;;5.38;4.13;;;;;;;;;;6190056;23;20223;-87
2022/09/05 00:31:33;;;;;;;6.30;4.18;;;;;;;;;;6189697;23;20200;-89
2022/09/05 00:34:51;;;;;;;8.15;3.90;;;;;;;;;;6189437;23;20169;-86
2022/09/05 00:37:58;;;;;;;6.85;3.75;;;;;;;;;;6188655;23;20171;-85
2022/09/05 00:41:04;;;;;;;7.00;3.88;;;;;;;;;;6188439;23;20646;-86
2022/09/05 00:44:11;;;;;;;5.10;3.90;;;;;;;;;;6189922;23;20196;-87
2022/09/05 00:47:22;;;;;;;6.47;4.25;;;;;;;;;;6190783;23;20620;-87
2022/09/05 00:50:30;;;;;;;8.65;4.32;;;;;;;;;;6174017;23;20286;-87
2022/09/05 00:53:39;;;;;;;8.55;4.53;;;;;;;;;;6191171;23;20176;-87
2022/09/05 00:56:54;;;;;;;6.25;4.20;;;;;;;;;;6174245;23;20176;-87
2022/09/05 01:00:06;;;;;;;11.77;4.35;;;;;;;;;;6192573;23;20192;-89
2022/09/05 01:03:18;;;;;;;6.93;4.00;;;;;;;;;;6193247;23;20263;-87
2022/09/05 01:06:40;;;;;;;10.10;4.20;;;;;;;;;;6175143;23;20213;-88
2022/09/05 01:09:52;;;;;;;6.72;4.25;;;;;;;;;;6174912;23;20172;-86
2022/09/05 01:13:06;;;;;;;6.30;4.32;;;;;;;;;;6195623;23;20164;-87
2022/09/05 01:16:16;;;;;;;6.82;4.28;;;;;;;;;;6193743;23;20194;-88
2022/09/05 01:19:28;;;;;;;8.35;4.70;;;;;;;;;;6192710;23;20704;-87
2022/09/05 01:22:51;;;;;;;6.75;4.57;;;;;;;;;;6193030;23;20152;-87
2022/09/05 01:26:06;;;;;;;9.77;4.70;;;;;;;;;;6176883;23;20175;-86
2022/09/05 01:29:18;;;;;;;7.20;4.43;;;;;;;;;;6194987;23;20283;-86
2022/09/05 01:32:30;;;;;;;8.27;4.72;;;;;;;;;;6176009;23;20172;-85
2022/09/05 01:35:45;;;;;;;7.22;4.40;;;;;;;;;;6193024;23;20172;-87
2022/09/05 01:38:56;;;;;;;7.75;4.40;;;;;;;;;;6192631;23;20172;-88
2022/09/05 01:42:08;;;;;;;8.43;4.70;;;;;;;;;;6176134;23;20204;-88
2022/09/05 01:45:19;;;;;;;7.60;4.28;;;;;;;;;;6192569;23;20187;-89
2022/09/05 01:48:29;;;;;;;15.55;5.78;;;;;;;;;;6192596;23;20630;-87
2022/09/05 01:51:37;;;;;;;10.25;4.40;;;;;;;;;;6191547;23;20180;-88
2022/09/05 01:54:49;;;;;;;10.65;5.10;;;;;;;;;;6175513;23;20179;-88
2022/09/05 01:57:56;;;;;;;7.50;4.25;;;;;;;;;;6176673;23;20168;-90
2022/09/05 02:01:06;;;;;;;9.23;4.93;;;;;;;;;;6190544;23;20192;-87
2022/09/05 02:04:29;;;;;;;14.63;5.20;;;;;;;;;;6175839;23;20176;-87
2022/09/05 02:07:46;;;;;;;9.77;4.20;;;;;;;;;;6193434;23;20151;-87
2022/09/05 02:11:05;;;;;;;6.50;4.32;;;;;;;;;;6194589;23;20167;-88
2022/09/05 02:14:19;;;;;;;6.97;4.22;;;;;;;;;;6174729;23;20172;-87
2022/09/05 02:17:31;;;;;;;5.57;3.92;;;;;;;;;;6176397;23;20206;-87
2022/09/05 02:20:44;;;;;;;10.63;4.00;;;;;;;;;;6176739;23;20192;-87
2022/09/05 02:23:52;;;;;;;10.40;4.32;;;;;;;;;;6194246;23;20231;-87
2022/09/05 02:27:06;;;;;;;10.00;4.20;;;;;;;;;;6193976;23;20239;-90
2022/09/05 02:30:13;;;;;;;7.70;4.13;;;;;;;;;;6176588;23;20248;-87
2022/09/05 02:33:24;;;;;;;7.38;4.47;;;;;;;;;;6190572;23;20184;-87
2022/09/05 02:36:33;;;;;;;10.73;4.65;;;;;;;;;;6175647;23;20172;-87
2022/09/05 02:39:40;;;;;;;7.07;4.53;;;;;;;;;;6175833;23;20164;-87
2022/09/05 02:42:49;;;;;;;9.43;4.50;;;;;;;;;;6173953;23;20219;-87
2022/09/05 02:45:58;;;;;;;8.05;4.28;;;;;;;;;;6175760;23;20195;-88
2022/09/05 02:49:06;;;;;;;8.98;4.22;;;;;;;;;;6191390;23;20195;-87
2022/09/05 02:52:14;;;;;;;12.15;5.03;;;;;;;;;;6192836;23;20500;-87
2022/09/05 02:55:23;;;;;;;8.02;4.97;;;;;;;;;;6193063;23;20192;-88
2022/09/05 02:58:39;;;;;;;6.75;4.60;;;;;;;;;;6190416;23;20171;-87
2022/09/05 03:01:56;;;;;;;9.57;5.22;;;;;;;;;;6174697;23;20496;-86
2022/09/05 03:05:06;;;;;;;9.55;5.75;;;;;;;;;;6173274;23;20245;-87
2022/09/05 03:08:18;;;;;;;15.95;6.80;;;;;;;;;;6176108;23;20611;-89
2022/09/05 03:11:45;;;;;;;16.05;6.50;;;;;;;;;;6190092;23;20526;-86
2022/09/05 03:15:24;;;;;;;14.25;7.07;;;;;;;;;;6174287;23;20194;-88
2022/09/05 03:18:32;;;;;;;10.27;5.88;;;;;;;;;;6192052;23;20204;-88
2022/09/05 03:21:54;;;;;;;14.63;6.15;;;;;;;;;;6190629;23;20326;-87
2022/09/05 03:25:18;;;;;;;16.63;6.05;;;;;;;;;;6174664;23;20168;-88
2022/09/05 03:28:41;;;;;;;18.63;7.35;;;;;;;;;;6191079;23;20176;-88
2022/09/05 03:31:56;;;;;;;12.45;6.90;;;;;;;;;;6192501;23;20167;-87
2022/09/05 03:35:20;;;;;;;16.20;7.93;;;;;;;;;;6174991;23;20168;-88
2022/09/05 03:39:01;;;;;;;19.30;8.45;;;;;;;;;;6190641;23;20168;-87
2022/09/05 03:42:11;;;;;;;18.95;8.52;;;;;;;;;;6174769;23;20192;-88
2022/09/05 03:45:43;;;;;;;22.45;7.78;;;;;;;;;;6189558;23;20808;-87
2022/09/05 03:49:03;;;;;;;13.52;7.80;;;;;;;;;;6162875;23;20183;-88
2022/09/05 03:52:15;;;;;;;41.20;8.35;;;;;;;;;;6175004;23;20171;-87
2022/09/05 03:55:30;;;;;;;20.55;8.27;;;;;;;;;;6194327;23;20255;-88
2022/09/05 03:58:55;;;;;;;17.75;7.60;;;;;;;;;;6176088;23;20172;-86
2022/09/05 04:02:03;;;;;;;19.73;8.75;;;;;;;;;;6191082;23;20211;-89
2022/09/05 04:05:09;;;;;;;19.48;8.50;;;;;;;;;;6191923;23;20168;-87
2022/09/05 04:08:19;;;;;;;17.38;8.55;;;;;;;;;;6176093;23;20226;-86
2022/09/05 04:11:32;;;;;;;23.40;7.53;;;;;;;;;;6174114;23;20172;-87
2022/09/05 04:14:39;;;;;;;25.15;7.72;;;;;;;;;;6192451;23;20506;-87
2022/09/05 04:17:47;;;;;;;22.27;8.27;;;;;;;;;;6191563;23;20279;-88
2022/09/05 04:20:54;;;;;;;15.23;7.53;;;;;;;;;;6193454;23;20195;-87
2022/09/05 04:24:06;;;;;;;15.88;7.75;;;;;;;;;;6194495;23;20175;-87
2022/09/05 04:27:25;;;;;;;16.25;7.25;;;;;;;;;;6196422;23;20171;-86
2022/09/05 04:30:38;;;;;;;17.15;7.10;;;;;;;;;;6195158;23;20164;-87
2022/09/05 04:33:58;;;;;;;14.82;7.68;;;;;;;;;;6195660;23;20450;-87
2022/09/05 04:37:05;;;;;;;22.02;7.28;;;;;;;;;;6195308;23;20175;-89
2022/09/05 04:40:28;;;;;;;13.13;7.57;;;;;;;;;;6176736;23;20171;-88
2022/09/05 04:43:36;;;;;;;21.98;7.63;;;;;;;;;;6177030;23;20168;-88
2022/09/05 04:46:49;;;;;;;30.33;7.30;;;;;;;;;;6192766;23;20727;-88
2022/09/05 04:49:58;;;;;;;18.40;7.55;;;;;;;;;;6198205;23;20255;-87
2022/09/05 04:53:10;;;;;;;19.60;7.80;;;;;;;;;;6193740;23;20423;-87
2022/09/05 04:56:18;;;;;;;12.90;7.25;;;;;;;;;;6195279;23;20168;-86
2022/09/05 04:59:25;;;;;;;14.38;7.25;;;;;;;;;;6193470;23;20502;-86
2022/09/05 05:02:37;;;;;;;16.75;7.65;;;;;;;;;;6177443;23;20184;-87
2022/09/05 05:05:52;;;;;;;19.00;8.05;;;;;;;;;;6196279;23;20163;-88
2022/09/05 05:09:00;;;;;;;19.02;7.82;;;;;;;;;;6197754;23;20148;-87
2022/09/05 05:12:10;;;;;;;11.43;7.00;;;;;;;;;;6196576;23;20167;-88
2022/09/05 05:15:19;;;;;;;11.73;6.65;;;;;;;;;;6178668;23;20243;-87
2022/09/05 05:18:29;;;;;;;12.88;6.75;;;;;;;;;;6178937;23;20168;-89
2022/09/05 05:21:34;;;;;;;13.40;7.00;;;;;;;;;;6194475;23;20188;-88
2022/09/05 05:24:43;;;;;;;25.30;8.00;;;;;;;;;;6196466;23;20176;-87
2022/09/05 05:27:55;;;;;;;25.13;8.00;;;;;;;;;;6196478;23;20176;-89
2022/09/05 05:31:09;;;;;;;21.90;8.05;;;;;;;;;;6177451;23;20175;-88
2022/09/05 05:34:18;;;;;;;13.60;7.70;;;;;;;;;;6193877;23;20279;-88
2022/09/05 05:37:28;;;;;;;21.95;8.23;;;;;;;;;;6196577;23;20296;-89
2022/09/05 05:40:33;;;;;;;27.27;8.45;;;;;;;;;;6194462;23;20167;-88
2022/09/05 05:43:39;;;;;;;14.30;8.10;;;;;;;;;;6194843;23;20196;-87
2022/09/05 05:46:47;;;;;;;19.20;7.53;;;;;;;;;;6174372;23;20172;-88
2022/09/05 05:49:59;;;;;;;31.42;8.30;;;;;;;;;;6196012;23;20199;-87
2022/09/05 05:53:19;;;;;;;15.88;8.15;;;;;;;;;;6192571;23;20171;-90
2022/09/05 05:56:38;;;;;;;18.52;7.70;;;;;;;;;;6192594;23;20172;-88
2022/09/05 06:00:01;;;;;;;31.42;7.30;;;;;;;;;;6193054;23;20612;-88
2022/09/05 06:03:38;;;;;;;30.67;9.35;;;;;;;;;;6193994;23;20172;-88
2022/09/05 06:06:53;;;;;;;23.40;8.88;;;;;;;;;;6162855;23;20171;-89
2022/09/05 06:10:07;;;;;;;41.45;8.65;;;;;;;;;;6192192;23;20596;-88
2022/09/05 06:13:33;;;;;;;28.40;8.77;;;;;;;;;;6177511;23;20207;-88
2022/09/05 06:16:45;;;;;;;33.80;9.13;;;;;;;;;;6174963;23;20192;-88
2022/09/05 06:20:23;;;;;;;70.50;11.38;;;;;;;;;;6174379;23;20168;-89
2022/09/05 06:23:43;;;;;;;43.05;9.93;;;;;;;;;;6172754;23;20201;-89
2022/09/05 06:27:05;;;;;;;39.40;10.18;;;;;;;;;;6190521;23;20168;-86
2022/09/05 06:30:14;;;;;;;24.13;10.15;;;;;;;;;;6173742;23;20176;-87
2022/09/05 06:33:27;;;;;;;16.25;8.88;;;;;;;;;;6171969;23;20240;-88
2022/09/05 06:36:42;;;;;;;17.00;10.15;;;;;;;;;;6173271;23;20554;-87
2022/09/05 06:39:58;;;;;;;15.52;8.13;;;;;;;;;;6174474;23;20184;-86
2022/09/05 06:43:07;;;;;;;20.00;9.00;;;;;;;;;;6193092;23;20191;-88
2022/09/05 06:46:22;;;;;;;15.48;8.65;;;;;;;;;;6191906;23;20168;-88
2022/09/05 06:49:32;;;;;;;16.05;8.88;;;;;;;;;;6175419;23;20195;-88
2022/09/05 06:53:05;;;;;;;16.50;9.60;;;;;;;;;;6191258;23;20289;-89
2022/09/05 06:56:27;;;;;;;15.15;9.38;;;;;;;;;;6192190;23;20234;-89
2022/09/05 06:59:53;;;;;;;12.68;7.90;;;;;;;;;;6193376;23;20172;-88
2022/09/05 07:03:10;;;;;;;14.80;7.80;;;;;;;;;;6172036;23;20195;-88
2022/09/05 07:06:19;;;;;;;16.80;7.50;;;;;;;;;;6193253;23;20184;-88
2022/09/05 07:09:27;;;;;;;11.93;6.95;;;;;;;;;;6191413;23;20171;-88
2022/09/05 07:12:36;;;;;;;11.30;7.22;;;;;;;;;;6174822;23;20199;-89
2022/09/05 07:15:50;;;;;;;12.45;7.20;;;;;;;;;;6191201;23;20195;-89
2022/09/05 07:19:03;;;;;;;10.10;6.90;;;;;;;;;;6175521;23;20215;-88
2022/09/05 07:22:12;;;;;;;8.20;6.22;;;;;;;;;;6192428;23;20195;-88
2022/09/05 07:25:18;;;;;;;8.38;6.60;;;;;;;;;;6193452;23;20176;-88
2022/09/05 07:28:23;;;;;;;10.25;6.63;;;;;;;;;;6194361;23;20304;-88
2022/09/05 07:31:29;;;;;;;9.15;6.20;;;;;;;;;;6174595;23;20206;-89
2022/09/05 07:34:37;;;;;;;11.63;6.80;;;;;;;;;;6195281;23;20172;-89
2022/09/05 07:37:44;;;;;;;7.60;5.65;;;;;;;;;;6193829;23;20619;-88
2022/09/05 07:40:52;;;;;;;7.20;5.50;;;;;;;;;;6193442;23;20246;-89
2022/09/05 07:44:01;;;;;;;7.78;5.70;;;;;;;;;;6176568;23;20226;-88
2022/09/05 07:47:08;;;;;;;6.57;4.90;;;;;;;;;;6193020;23;20306;-89
2022/09/05 07:50:17;;;;;;;9.35;5.35;;;;;;;;;;6181431;23;20212;-88
2022/09/05 07:53:24;;;;;;;7.13;4.78;;;;;;;;;;6181667;23;20619;-89
2022/09/05 07:56:44;;;;;;;8.45;4.53;;;;;;;;;;6194138;23;20279;-89
2022/09/05 07:59:50;;;;;;;8.32;4.95;;;;;;;;;;6176681;23;20686;-89
2022/09/05 08:02:56;;;;;;;7.60;4.95;;;;;;;;;;6190965;23;20194;-89
2022/09/05 08:06:05;;;;;;;8.88;5.20;;;;;;;;;;6175958;23;20155;-89
2022/09/05 08:09:15;;;;;;;5.50;4.13;;;;;;;;;;6179944;23;20206;-89
2022/09/05 08:12:22;;;;;;;7.68;4.22;;;;;;;;;;6195895;23;20325;-89
2022/09/05 08:15:29;;;;;;;4.45;3.42;;;;;;;;;;6180252;23;20194;-89
2022/09/05 08:18:37;;;;;;;5.40;3.85;;;;;;;;;;6192302;23;20614;-89
2022/09/05 08:21:47;;;;;;;5.63;4.03;;;;;;;;;;6193353;23;20155;-90
2022/09/05 08:24:57;;;;;;;9.95;4.40;;;;;;;;;;6194909;23;20449;-89
2022/09/05 08:28:05;;;;;;;4.55;3.83;;;;;;;;;;6174953;23;20280;-90
2022/09/05 08:31:13;;;;;;;7.00;3.90;;;;;;;;;;6177753;23;20163;-88
2022/09/05 08:34:22;;;;;;;5.30;3.63;;;;;;;;;;6174258;23;20505;-88
2022/09/05 08:37:30;;;;;;;5.85;3.50;;;;;;;;;;6177711;23;20223;-89
2022/09/05 08:40:38;;;;;;;5.03;3.30;;;;;;;;;;6175692;23;20183;-88
2022/09/05 08:43:49;;;;;;;3.03;2.72;;;;;;;;;;6192349;23;20198;-89
2022/09/05 08:46:56;;;;;;;6.93;3.33;;;;;;;;;;6194155;23;20148;-89
2022/09/05 08:50:12;;;;;;;4.38;3.30;;;;;;;;;;6197565;23;20207;-89
2022/09/05 08:53:23;;;;;;;8.43;4.00;;;;;;;;;;6175603;23;20267;-87
2022/09/05 08:56:32;;;;;;;7.10;4.22;;;;;;;;;;6194092;23;20170;-89
2022/09/05 08:59:41;;;;;;;7.50;4.10;;;;;;;;;;6191484;23;20175;-88
2022/09/05 09:03:01;;;;;;;7.43;4.53;;;;;;;;;;6197547;23;20535;-89
2022/09/05 09:06:19;;;;;;;8.40;4.85;;;;;;;;;;6182402;23;20174;-89
2022/09/05 09:09:34;;;;;;;10.18;5.90;;;;;;;;;;6202342;23;20233;-88
2022/09/05 09:12:53;;;;;;;9.20;6.30;;;;;;;;;;6192797;23;20167;-90
2022/09/05 09:16:05;;;;;;;8.73;5.63;;;;;;;;;;6194730;23;20643;-87
2022/09/05 09:19:13;;;;;;;9.52;6.80;;;;;;;;;;6177905;23;20207;-90
2022/09/05 09:22:21;;;;;;;12.52;7.90;;;;;;;;;;6173983;23;20198;-88
2022/09/05 09:25:30;;;;;;;8.32;6.07;;;;;;;;;;6192571;23;20175;-90
2022/09/05 09:28:41;;;;;;;11.63;7.18;;;;;;;;;;6179148;23;20295;-90
2022/09/05 09:31:53;;;;;;;12.68;6.90;;;;;;;;;;6175885;23;20155;-90
2022/09/05 09:35:02;;;;;;;11.73;6.85;;;;;;;;;;6194051;23;20627;-89
2022/09/05 09:38:14;;;;;;;15.45;7.10;;;;;;;;;;6195597;23;20179;-90
2022/09/05 09:41:29;;;;;;;13.63;7.50;;;;;;;;;;6175774;23;20174;-91
2022/09/05 09:44:53;;;;;;;10.85;6.88;;;;;;;;;;6194054;23;20179;-90
2022/09/05 09:48:15;;;;;;;12.52;6.90;;;;;;;;;;6194815;23;20167;-89
2022/09/05 09:51:38;;;;;;;10.45;6.80;;;;;;;;;;6194571;23;20163;-90
2022/09/05 09:55:13;;;;;;;11.32;6.70;;;;;;;;;;6177616;23;20163;-90
2022/09/05 09:58:42;;;;;;;13.88;7.05;;;;;;;;;;6178736;23;20239;-89
2022/09/05 10:01:53;;;;;;;10.70;7.00;;;;;;;;;;6193148;23;20179;-89
2022/09/05 10:05:17;;;;;;;12.95;6.93;;;;;;;;;;6193143;23;20167;-89
2022/09/05 10:08:32;;;;;;;10.75;6.47;;;;;;;;;;6196621;23;20171;-88
2022/09/05 10:11:48;;;;;;;13.80;6.15;;;;;;;;;;6176592;23;20195;-89
2022/09/05 10:15:00;;;;;;;7.97;5.68;;;;;;;;;;6160404;23;20527;-89
2022/09/05 10:18:23;;;;;;;7.50;5.38;;;;;;;;;;6193976;23;20814;-89
2022/09/05 10:21:59;;;;;;;6.72;4.80;;;;;;;;;;6193329;23;20186;-89
2022/09/05 10:25:27;;;;;;;8.07;4.10;;;;;;;;;;6088462;23;20277;-89
2022/09/05 10:28:38;;;;;;;7.25;4.45;;;;;;;;;;6192353;23;20662;-89
2022/09/05 10:31:50;;;;;;;7.75;5.15;;;;;;;;;;6176367;23;20167;-89
2022/09/05 10:34:58;;;;;;;6.63;4.40;;;;;;;;;;6194343;23;20222;-90
2022/09/05 10:38:04;;;;;;;10.25;5.25;;;;;;;;;;6197749;23;20171;-88
2022/09/05 10:41:12;;;;;;;9.80;4.70;;;;;;;;;;6195905;23;20227;-88
2022/09/05 10:44:24;;;;;;;6.00;4.45;;;;;;;;;;6195462;23;20195;-90
2022/09/05 10:47:35;;;;;;;6.38;4.55;;;;;;;;;;6178418;23;20178;-88
2022/09/05 10:50:43;;;;;;;20.05;5.57;;;;;;;;;;6197760;23;20167;-89
2022/09/05 10:53:54;;;;;;;5.72;3.70;;;;;;;;;;6196377;23;20166;-88
2022/09/05 10:57:06;;;;;;;7.60;4.38;;;;;;;;;;6176913;23;20227;-87
2022/09/05 11:00:27;;;;;;;4.95;3.85;;;;;;;;;;6195326;23;20171;-89
2022/09/05 11:03:45;;;;;;;9.00;4.15;;;;;;;;;;6197454;23;20243;-91
2022/09/05 11:06:54;;;;;;;2.97;2.00;;;;;;;;;;6199182;23;20163;-88
2022/09/05 11:10:05;;;;;;;4.07;1.83;;;;;;;;;;6176084;23;20175;-88
2022/09/05 11:13:21;;;;;;;2.17;1.65;;;;;;;;;;6192532;23;20167;-89
2022/09/05 11:16:31;;;;;;;2.10;1.50;;;;;;;;;;6196300;23;20239;-89
2022/09/05 11:19:40;;;;;;;3.72;1.50;;;;;;;;;;6177581;23;20172;-91
2022/09/05 11:22:47;;;;;;;2.28;1.45;;;;;;;;;;6193965;23;20191;-90
2022/09/05 11:25:59;;;;;;;2.42;1.35;;;;;;;;;;6196715;23;20159;-90
2022/09/05 11:29:06;;;;;;;3.28;1.42;;;;;;;;;;6193349;23;20499;-90
2022/09/05 11:32:38;;;;;;;1.83;1.42;;;;;;;;;;6195875;23;20159;-89
2022/09/05 11:35:46;;;;;;;2.30;1.92;;;;;;;;;;6185152;23;20496;-88
2022/09/05 11:39:03;;;;;;;3.35;1.75;;;;;;;;;;6179728;23;20167;-90
2022/09/05 11:42:19;;;;;;;2.03;1.48;;;;;;;;;;6198003;23;20548;-89
2022/09/05 11:45:39;;;;;;;3.80;1.63;;;;;;;;;;6196717;23;20619;-90
2022/09/05 11:49:00;;;;;;;3.97;1.88;;;;;;;;;;6197742;23;20496;-91
2022/09/05 11:52:32;;;;;;;3.00;1.50;;;;;;;;;;6177084;23;20232;-89
2022/09/05 11:55:55;;;;;;;2.08;1.70;;;;;;;;;;6140207;23;20254;-89
2022/09/05 11:59:15;;;;;;;4.05;1.83;;;;;;;;;;6151496;23;20257;-90
2022/09/05 12:02:40;;;;;;;4.32;2.33;;;;;;;;;;6168170;23;20191;-89
2022/09/05 12:06:07;;;;;;;3.65;1.90;;;;;;;;;;6175592;23;20635;-90
2022/09/05 12:09:15;;;;;;;3.70;2.00;;;;;;;;;;6196336;23;20167;-90
2022/09/05 12:12:25;;;;;;;3.58;2.00;;;;;;;;;;6195548;23;20623;-89
2022/09/05 12:15:33;;;;;;;1.63;1.38;;;;;;;;;;6195784;23;20231;-89
2022/09/05 12:18:44;;;;;;;4.38;1.48;;;;;;;;;;6196257;23;20171;-89
2022/09/05 12:22:03;;;;;;;4.60;1.75;;;;;;;;;;6179471;23;20171;-90
2022/09/05 12:25:26;;;;;;;1.60;1.40;;;;;;;;;;6198214;23;20186;-89
2022/09/05 12:28:33;;;;;;;3.30;1.75;;;;;;;;;;6196562;23;20175;-90
2022/09/05 12:31:41;;;;;;;3.95;1.40;;;;;;;;;;6196232;23;20228;-90
2022/09/05 12:34:52;;;;;;;1.63;1.13;;;;;;;;;;6197222;23;20179;-89
2022/09/05 12:38:01;;;;;;;2.45;1.65;;;;;;;;;;6197865;23;20607;-88
2022/09/05 12:41:09;;;;;;;1.90;1.52;;;;;;;;;;6199072;23;20175;-90
2022/09/05 12:44:23;;;;;;;2.72;1.17;;;;;;;;;;6183265;23;20175;-89
2022/09/05 12:47:30;;;;;;;1.58;1.17;;;;;;;;;;6202087;23;20164;-90
2022/09/05 12:50:43;;;;;;;2.30;1.20;;;;;;;;;;6200233;23;20159;-89
2022/09/05 12:53:52;;;;;;;1.77;1.30;;;;;;;;;;6197818;23;20190;-92
2022/09/05 12:57:01;;;;;;;2.10;1.60;;;;;;;;;;6197045;23;20314;-89
2022/09/05 13:00:11;;;;;;;3.03;1.35;;;;;;;;;;6182975;23;20174;-90
2022/09/05 13:03:18;;;;;;;3.40;1.38;;;;;;;;;;6196979;23;20263;-91
2022/09/05 13:06:24;;;;;;;2.25;1.60;;;;;;;;;;6181396;23;20163;-90
2022/09/05 13:09:34;;;;;;;1.70;1.50;;;;;;;;;;6198327;23;20253;-91
2022/09/05 13:12:53;;;;;;;1.88;1.58;;;;;;;;;;6180602;23;20171;-90
2022/09/05 13:16:00;;;;;;;2.35;1.35;;;;;;;;;;6198791;23;20524;-90
2022/09/05 13:19:06;;;;;;;1.80;1.42;;;;;;;;;;6200999;23;20167;-87
2022/09/05 13:22:12;;;;;;;1.73;1.15;;;;;;;;;;6198652;23;20159;-91
2022/09/05 13:25:25;;;;;;;3.67;1.60;;;;;;;;;;6182727;23;20229;-91
2022/09/05 13:28:34;;;;;;;1.20;1.10;;;;;;;;;;6197913;23;20187;-89
2022/09/05 13:31:57;;;;;;;1.95;1.30;;;;;;;;;;6198421;23;20220;-89
2022/09/05 13:35:07;;;;;;;4.20;1.20;;;;;;;;;;6180294;23;20167;-89
2022/09/05 13:38:15;;;;;;;3.10;1.33;;;;;;;;;;6181859;23;20258;-90
2022/09/05 13:41:26;;;;;;;1.70;1.33;;;;;;;;;;6195915;23;20179;-90
2022/09/05 13:44:35;;;;;;;2.35;1.20;;;;;;;;;;6195414;23;20231;-88
2022/09/05 13:48:08;;;;;;;2.10;1.30;;;;;;;;;;6195546;23;20214;-89
2022/09/05 13:51:28;;;;;;;1.88;1.42;;;;;;;;;;6161431;23;20179;-90
2022/09/05 13:54:39;;;;;;;1.65;1.40;;;;;;;;;;6179834;23;20155;-87
2022/09/05 13:57:47;;;;;;;1.63;1.10;;;;;;;;;;6179823;23;20172;-88
2022/09/05 14:01:11;;;;;;;1.55;1.20;;;;;;;;;;6197352;23;20506;-88
2022/09/05 14:04:49;;;;;;;5.90;3.03;;;;;;;;;;6195810;23;20195;-88
2022/09/05 14:08:08;;;;;;;1.75;1.20;;;;;;;;;;6106074;23;20265;-89
2022/09/05 14:11:28;;;;;;;1.77;1.30;;;;;;;;;;6094045;23;20173;-89
2022/09/05 14:14:38;;;;;;;1.67;1.20;;;;;;;;;;6195448;23;20199;-88
2022/09/05 14:18:00;;;;;;;4.55;1.90;;;;;;;;;;6197350;23;20172;-89
2022/09/05 14:21:17;;;;;;;3.10;1.55;;;;;;;;;;6180046;23;20279;-89
2022/09/05 14:24:24;;;;;;;2.70;1.50;;;;;;;;;;6197310;23;20222;-88
2022/09/05 14:27:29;;;;;;;1.48;1.30;;;;;;;;;;6198055;23;20214;-89
2022/09/05 14:30:39;;;;;;;4.35;1.50;;;;;;;;;;6176105;23;20175;-89
2022/09/05 14:33:55;;;;;;;3.13;1.50;;;;;;;;;;6178952;23;20236;-88
2022/09/05 14:37:06;;;;;;;1.40;1.30;;;;;;;;;;6181597;23;20187;-89
2022/09/05 14:40:41;;;;;;;3.78;1.60;;;;;;;;;;6182047;23;20172;-87
2022/09/05 14:44:02;;;;;;;1.30;1.17;;;;;;;;;;6197319;23;20203;-87
2022/09/05 14:47:19;;;;;;;2.15;1.50;;;;;;;;;;6180736;23;20170;-88
2022/09/05 14:50:49;;;;;;;2.00;1.40;;;;;;;;;;6197332;23;20164;-88
2022/09/05 14:53:58;;;;;;;1.50;1.40;;;;;;;;;;6199170;23;20187;-90
2022/09/05 14:57:05;;;;;;;3.72;1.63;;;;;;;;;;6180468;23;20147;-88
2022/09/05 15:00:16;;;;;;;3.47;1.45;;;;;;;;;;6180818;23;20174;-90
2022/09/05 15:03:22;;;;;;;3.17;1.70;;;;;;;;;;6197812;23;20167;-88
2022/09/05 15:06:29;;;;;;;5.68;1.50;;;;;;;;;;6196430;23;20167;-90
2022/09/05 15:09:35;;;;;;;1.60;1.30;;;;;;;;;;6201480;23;20167;-89
2022/09/05 15:12:45;;;;;;;3.22;1.27;;;;;;;;;;6199346;23;20191;-88
2022/09/05 15:15:57;;;;;;;2.13;1.20;;;;;;;;;;6198048;23;20277;-89
2022/09/05 15:19:04;;;;;;;2.60;1.20;;;;;;;;;;6196235;23;20714;-88
2022/09/05 15:22:20;;;;;;;2.05;1.45;;;;;;;;;;6195131;23;20195;-90
2022/09/05 15:25:26;;;;;;;1.48;1.30;;;;;;;;;;6198016;23;20311;-89
2022/09/05 15:28:32;;;;;;;3.63;1.20;;;;;;;;;;6195076;23;20247;-89
2022/09/05 15:31:38;;;;;;;3.80;1.33;;;;;;;;;;6196455;23;20167;-89
2022/09/05 15:34:45;;;;;;;3.17;1.40;;;;;;;;;;6196985;23;20163;-89
2022/09/05 15:37:50;;;;;;;3.95;1.40;;;;;;;;;;6195308;23;20167;-88
2022/09/05 15:41:08;;;;;;;8.77;1.45;;;;;;;;;;6197631;23;20313;-89
2022/09/05 15:44:13;;;;;;;2.08;1.20;;;;;;;;;;6196876;23;20191;-88
2022/09/05 15:47:23;;;;;;;2.50;1.50;;;;;;;;;;6196557;23;20231;-89
2022/09/05 15:50:37;;;;;;;1.80;1.48;;;;;;;;;;6178659;23;20207;-87
2022/09/05 15:53:44;;;;;;;1.50;1.30;;;;;;;;;;6196537;23;20290;-88
2022/09/05 15:56:51;;;;;;;6.28;1.42;;;;;;;;;;6201338;23;20175;-87
2022/09/05 15:59:57;;;;;;;2.00;1.55;;;;;;;;;;6197945;23;20216;-86
2022/09/05 16:03:04;;;;;;;2.85;1.60;;;;;;;;;;6183097;23;20167;-88
2022/09/05 16:06:13;;;;;;;4.20;1.80;;;;;;;;;;6197718;23;20175;-88
2022/09/05 16:09:30;;;;;;;6.38;1.48;;;;;;;;;;6194415;23;20195;-88
2022/09/05 16:12:37;;;;;;;3.30;1.55;;;;;;;;;;6195058;23;20189;-88
2022/09/05 16:15:45;;;;;;;3.95;2.17;;;;;;;;;;6197625;23;20235;-87
2022/09/05 16:18:53;;;;;;;4.20;1.80;;;;;;;;;;6199185;23;20630;-87
2022/09/05 16:22:02;;;;;;;2.75;1.83;;;;;;;;;;6179845;23;20519;-87
2022/09/05 16:25:10;;;;;;;4.03;1.85;;;;;;;;;;6196233;23;20287;-86
2022/09/05 16:28:17;;;;;;;3.63;2.13;;;;;;;;;;6176735;23;20187;-87
2022/09/05 16:31:25;;;;;;;3.72;2.25;;;;;;;;;;6178695;23;20163;-86
2022/09/05 16:34:34;;;;;;;3.85;2.72;;;;;;;;;;6177649;23;20163;-87
2022/09/05 16:37:42;;;;;;;2.67;2.00;;;;;;;;;;6195213;23;20237;-87
2022/09/05 16:40:50;;;;;;;3.90;1.88;;;;;;;;;;6194062;23;20456;-87
2022/09/05 16:43:57;;;;;;;2.47;2.10;;;;;;;;;;6176087;23;20171;-87
2022/09/05 16:47:07;;;;;;;4.05;2.38;;;;;;;;;;6179104;23;20206;-87
2022/09/05 16:50:15;;;;;;;3.33;2.30;;;;;;;;;;6178009;23;20171;-87
2022/09/05 16:53:28;;;;;;;4.13;2.17;;;;;;;;;;6195940;23;20168;-87
2022/09/05 16:56:35;;;;;;;11.20;4.85;;;;;;;;;;6195881;23;20220;-87
2022/09/05 16:59:43;;;;;;;4.75;2.67;;;;;;;;;;6196616;23;20182;-88
2022/09/05 17:02:54;;;;;;;3.50;2.42;;;;;;;;;;6196606;23;20270;-88
2022/09/05 17:06:05;;;;;;;8.32;3.97;;;;;;;;;;6198366;23;20199;-88
2022/09/05 17:09:20;;;;;;;7.38;3.65;;;;;;;;;;6178377;23;20171;-87
2022/09/05 17:12:26;;;;;;;4.15;2.58;;;;;;;;;;6197973;23;20168;-87
2022/09/05 17:15:33;;;;;;;5.75;2.40;;;;;;;;;;6195380;23;20611;-87
2022/09/05 17:18:39;;;;;;;6.10;2.60;;;;;;;;;;6195775;23;20615;-88
2022/09/05 17:21:48;;;;;;;3.67;2.55;;;;;;;;;;6197425;23;20172;-87
2022/09/05 17:24:57;;;;;;;5.32;2.83;;;;;;;;;;6194746;23;20191;-88
2022/09/05 17:28:09;;;;;;;4.53;2.72;;;;;;;;;;6198521;23;20271;-89
2022/09/05 17:31:33;;;;;;;5.95;2.78;;;;;;;;;;6178483;23;20513;-87
2022/09/05 17:34:48;;;;;;;5.95;3.17;;;;;;;;;;6196625;23;20219;-88
2022/09/05 17:38:20;;;;;;;6.75;3.30;;;;;;;;;;6196149;23;20214;-86
2022/09/05 17:41:44;;;;;;;3.72;3.20;;;;;;;;;;6179338;23;20235;-87
2022/09/05 17:45:15;;;;;;;7.85;3.03;;;;;;;;;;6178721;23;20527;-88
2022/09/05 17:48:36;;;;;;;7.15;3.22;;;;;;;;;;6177728;23;20242;-87
2022/09/05 17:52:00;;;;;;;5.80;3.63;;;;;;;;;;6179745;23;20171;-87
2022/09/05 17:55:13;;;;;;;7.18;3.25;;;;;;;;;;6195000;23;20172;-87
2022/09/05 17:58:21;;;;;;;5.97;3.20;;;;;;;;;;6197226;23;20168;-87
2022/09/05 18:01:31;;;;;;;6.03;3.63;;;;;;;;;;6179864;23;20164;-87
2022/09/05 18:04:45;;;;;;;6.57;3.97;;;;;;;;;;6179254;23;20196;-87
2022/09/05 18:07:56;;;;;;;8.38;3.50;;;;;;;;;;6178546;23;20168;-87
2022/09/05 18:11:07;;;;;;;7.30;3.65;;;;;;;;;;6194076;23;20171;-87
2022/09/05 18:14:30;;;;;;;8.48;3.67;;;;;;;;;;6193710;23;20188;-87
2022/09/05 18:17:50;;;;;;;8.40;3.78;;;;;;;;;;6177318;23;20180;-88
2022/09/05 18:20:57;;;;;;;7.95;4.00;;;;;;;;;;6194671;23;20295;-87
2022/09/05 18:24:05;;;;;;;6.78;3.70;;;;;;;;;;6175037;23;20273;-87
2022/09/05 18:27:19;;;;;;;12.05;4.28;;;;;;;;;;6175104;23;20238;-87
2022/09/05 18:30:33;;;;;;;8.52;4.10;;;;;;;;;;6195446;23;20200;-88
2022/09/05 18:33:38;;;;;;;7.93;4.30;;;;;;;;;;6192458;23;20167;-88
2022/09/05 18:36:43;;;;;;;9.80;4.90;;;;;;;;;;6193084;23;20624;-88
2022/09/05 18:40:04;;;;;;;5.63;3.90;;;;;;;;;;6194323;23;20195;-85
2022/09/05 18:43:14;;;;;;;10.52;4.10;;;;;;;;;;6194002;23;20172;-88
2022/09/05 18:46:24;;;;;;;6.35;4.03;;;;;;;;;;6178778;23;20199;-86
2022/09/05 18:49:33;;;;;;;6.85;3.78;;;;;;;;;;6194025;23;20172;-86
2022/09/05 18:52:42;;;;;;;6.47;4.18;;;;;;;;;;6179344;23;20499;-90
2022/09/05 18:55:51;;;;;;;6.13;4.18;;;;;;;;;;6176910;23;20168;-87
2022/09/05 18:59:04;;;;;;;8.32;3.90;;;;;;;;;;6196938;23;20167;-88
2022/09/05 19:02:11;;;;;;;9.25;3.92;;;;;;;;;;6200236;23;20583;-86
2022/09/05 19:05:20;;;;;;;6.40;4.03;;;;;;;;;;6196735;23;20278;-88
2022/09/05 20:27:38;;;;;;;9.77;6.68;;;;;;;;;;6221947;22;20695;-86
2022/09/05 20:30:45;;;;;;;11.65;7.03;;;;;;;;;;6206813;23;20166;-87